Flight Track Log - Related Links

Times and Time Zones

All times are in EDT time to prevent confusion due to time zone crossing. See the UAL1135 flight status page for this flight to view local times or setup timezone preferences in your user account.

Time Position Orientation Groundspeed Altitude Reporting Facility
EDT Latitude Longitude Course Direction KTS MPH feet Rate Location/Type
Mon 12:33:52 PM 37.6850 -122.3000 46° Northeast 217 250 3,500  Level FlightAware ADS-B
Mon 12:34:17 PM 37.7030 -122.2760 47° Northeast 237 273 4,300 2,291 Climbing FlightAware ADS-B
Mon 12:34:47 PM 37.7270 -122.2430 47° Northeast 249 287 5,600 2,509 Climbing FlightAware ADS-B
Mon 12:35:12 PM 37.7460 -122.2180 46° Northeast 258 297 6,600 2,618 Climbing FlightAware ADS-B
Mon 12:35:42 PM 37.7750 -122.1890 38° Northeast 261 300 8,000 2,400 Climbing FlightAware ADS-B
Mon 12:36:12 PM 37.8050 -122.1620 35° Northeast 277 319 9,000 2,073 Climbing FlightAware ADS-B
Mon 12:36:37 PM 37.8330 -122.1360 36° Northeast 290 334 9,900 2,143 Climbing FlightAware ADS-B
Mon 12:37:22 PM 37.8830 -122.0880 37° Northeast 313 360 11,500 1,694 Climbing FlightAware ADS-B
Mon 12:38:02 PM 37.9320 -122.0410 37° Northeast 351 404 12,300 1,906 Climbing FlightAware ADS-B
Mon 12:38:47 PM 37.9920 -121.9860 36° Northeast 359 413 14,200 2,259 Climbing FlightAware ADS-B
Mon 12:39:27 PM 38.0450 -121.9350 37° Northeast 371 427 15,500 1,950 Climbing FlightAware ADS-B
Mon 12:40:07 PM 38.1020 -121.8800 37° Northeast 386 444 16,800 1,976 Climbing FlightAware ADS-B
Mon 12:40:52 PM 38.1650 -121.8200 37° Northeast 394 453 18,300 1,976 Climbing FlightAware ADS-B
Mon 12:41:32 PM 38.2260 -121.7620 37° Northeast 402 463 19,600 1,800 Climbing FlightAware ADS-B
Mon 12:42:12 PM 38.2830 -121.7070 37° Northeast 407 468 20,700 1,624 Climbing FlightAware ADS-B
Mon 12:42:57 PM 38.3560 -121.6370 37° Northeast 421 484 21,900 1,553 Climbing FlightAware ADS-B
Mon 12:43:37 PM 38.4180 -121.5760 38° Northeast 428 493 22,900 1,482 Climbing FlightAware ADS-B
Mon 12:44:22 PM 38.4770 -121.4950 47° Northeast 440 506 24,000 1,624 Climbing FlightAware ADS-B
Mon 12:45:02 PM 38.5270 -121.4100 53° Northeast 441 507 25,200 1,650 Climbing FlightAware ADS-B
Mon 12:45:42 PM 38.5730 -121.3310 53° Northeast 441 507 26,200 1,482 Climbing FlightAware ADS-B
Mon 12:46:27 PM 38.6330 -121.2280 53° Northeast 447 514 27,300 1,200 Climbing FlightAware ADS-B
Mon 12:47:07 PM 38.6810 -121.1450 53° Northeast 454 522 27,900 988 Climbing FlightAware ADS-B
Mon 12:47:52 PM 38.7380 -121.0460 54° Northeast 462 532 28,700 1,059 Climbing FlightAware ADS-B
Mon 12:48:32 PM 38.7880 -120.9590 54° Northeast 465 535 29,400 1,275 Climbing FlightAware ADS-B
Mon 12:49:12 PM 38.8390 -120.8700 54° Northeast 459 528 30,400 1,129 Climbing FlightAware ADS-B
Mon 12:49:57 PM 38.8960 -120.7700 54° Northeast 456 525 31,000 424 Climbing FlightAware ADS-B
Mon 12:50:37 PM 38.9460 -120.6850 53° Northeast 457 526 31,000  Level FlightAware ADS-B
Mon 12:51:22 PM 39.0030 -120.5870 53° Northeast 457 526 31,000  Level FlightAware ADS-B
Mon 12:52:02 PM 39.0530 -120.5000 53° Northeast 457 526 31,000  Level FlightAware ADS-B
Mon 12:52:42 PM 39.1020 -120.4140 54° Northeast 461 531 31,000  Level FlightAware ADS-B
Mon 12:53:17 PM 39.1470 -120.3340 54° Northeast 462 532 31,000 141 Level FlightAware ADS-B
Mon 12:54:07 PM 39.2170 -120.2280 50° Northeast 460 529 31,200 667 Climbing FlightAware ADS-B
Mon 12:55:32 PM 39.3310 -120.0900 43° Northeast 456 525 32,500 912 Climbing FlightAware ADS-B
Mon 12:56:12 PM 39.3930 -120.0150 43° Northeast 457 526 33,100 918 Climbing FlightAware ADS-B
Mon 12:56:57 PM 39.4610 -119.9270 45° Northeast 459 528 33,800 825 Climbing FlightAware ADS-B
Mon 12:57:32 PM 39.4960 -119.8630 55° Northeast 462 532 34,200 960 Climbing FlightAware ADS-B
Mon 12:58:12 PM 39.5500 -119.7540 57° Northeast 458 527 35,000 600 Climbing FlightAware ADS-B
Mon 12:58:52 PM 39.5980 -119.6580 57° Northeast 458 527 35,000  Level FlightAware ADS-B
Mon 12:59:57 PM 39.6690 -119.5150 57° Northeast 459 528 35,000  Level FlightAware ADS-B
Mon 01:00:37 PM 39.7090 -119.4360 57° Northeast 459 528 35,000  Level FlightAware ADS-B
Mon 01:01:07 PM 39.7380 -119.3770 57° Northeast 459 528 35,000  Level FlightAware ADS-B
Mon 01:01:57 PM 39.7980 -119.2530 58° Northeast 459 528 35,000  Level FlightAware ADS-B
Mon 01:02:37 PM 39.8370 -119.1750 57° Northeast 459 528 35,000  Level FlightAware ADS-B
Mon 01:03:17 PM 39.8770 -119.0960 57° Northeast 459 528 35,000  Level FlightAware ADS-B
Mon 01:03:57 PM 39.9160 -119.0170 57° Northeast 459 528 35,000  Level FlightAware ADS-B
Mon 01:04:37 PM 39.9550 -118.9380 57° Northeast 459 528 35,000  Level FlightAware ADS-B
Mon 01:05:27 PM 40.0040 -118.8390 57° Northeast 459 528 35,000  Level FlightAware ADS-B
Mon 01:06:07 PM 40.0440 -118.7600 57° Northeast 459 528 35,000  Level FlightAware ADS-B
Mon 01:06:47 PM 40.0830 -118.6810 57° Northeast 459 528 35,000  Level FlightAware ADS-B
Mon 01:07:27 PM 40.1220 -118.6020 57° Northeast 459 528 35,000  Level FlightAware ADS-B
Mon 01:08:17 PM 40.1710 -118.5030 57° Northeast 459 528 35,000  Level FlightAware ADS-B
Mon 01:08:57 PM 40.2110 -118.4230 57° Northeast 459 528 35,000  Level FlightAware ADS-B
Mon 01:09:37 PM 40.2500 -118.3440 57° Northeast 459 528 35,000  Level FlightAware ADS-B
Mon 01:10:17 PM 40.2890 -118.2650 57° Northeast 459 528 35,000  Level FlightAware ADS-B
Mon 01:10:57 PM 40.3290 -118.1850 57° Northeast 459 528 35,000  Level FlightAware ADS-B
Mon 01:11:13 PM 40.3253 -117.8392 57° Northeast 472 543 35,000  Level Oakland Center
Mon 01:11:40 PM 40.3467 -117.7611 70° East 472 543 35,000  Level Salt Lake Center
Mon 01:12:42 PM 40.3961 -117.5783 70° East 474 545 35,000  Level Salt Lake Center
Mon 01:13:44 PM 40.4375 -117.4222 71° East 473 544 35,000  Level Salt Lake Center
Mon 01:14:45 PM 40.4797 -117.2639 71° East 475 547 35,000  Level Salt Lake Center
Mon 01:15:47 PM 40.5292 -117.0775 71° East 480 552 35,000  Level Salt Lake Center
Mon 01:16:48 PM 40.5717 -116.9147 71° East 483 556 35,000  Level Salt Lake Center
Mon 01:17:50 PM 40.6153 -116.7525 70° East 484 557 35,000  Level Salt Lake Center
Mon 01:18:51 PM 40.6661 -116.5653 70° East 482 555 35,000  Level Salt Lake Center
Mon 01:19:53 PM 40.7092 -116.4056 70° East 482 555 35,000  Level Salt Lake Center
Mon 01:20:55 PM 40.7583 -116.2206 71° East 480 552 35,000  Level Salt Lake Center
Mon 01:21:56 PM 40.8019 -116.0597 70° East 482 555 35,000  Level Salt Lake Center
Mon 01:22:58 PM 40.8425 -115.9017 71° East 478 550 35,000  Level Salt Lake Center
Mon 01:23:59 PM 40.8922 -115.7142 71° East 481 554 35,000  Level Salt Lake Center
Mon 01:30:12 PM 41.1610 -114.6610 71° East 490 564 35,000  Level FlightAware ADS-B
Mon 01:30:52 PM 41.1920 -114.5370 72° East 488 562 35,000  Level FlightAware ADS-B
Mon 01:31:37 PM 41.2220 -114.4170 72° East 487 560 35,000  Level FlightAware ADS-B
Mon 01:32:12 PM 41.2440 -114.3290 72° East 487 560 35,000  Level FlightAware ADS-B
Mon 01:32:52 PM 41.2670 -114.2320 72° East 487 560 35,000  Level FlightAware ADS-B
Mon 01:33:52 PM 41.3160 -114.0330 72° East 487 560 35,000  Level FlightAware ADS-B
Mon 01:35:32 PM 41.3730 -113.7340 76° East 497 572 35,000  Level FlightAware ADS-B
Mon 01:37:52 PM 41.4120 -113.3170 83° East 497 572 35,000  Level FlightAware ADS-B
Mon 01:38:32 PM 41.4240 -113.1890 83° East 500 575 35,000  Level FlightAware ADS-B
Mon 01:39:17 PM 41.4360 -113.0530 83° East 501 577 35,000  Level FlightAware ADS-B
Mon 01:39:57 PM 41.4470 -112.9300 83° East 502 578 35,000  Level FlightAware ADS-B
Mon 01:40:42 PM 41.4590 -112.7900 83° East 502 578 35,000  Level FlightAware ADS-B
Mon 01:41:22 PM 41.4700 -112.6690 83° East 502 578 35,000  Level FlightAware ADS-B
Mon 01:42:02 PM 41.4800 -112.5450 84° East 502 578 35,000  Level FlightAware ADS-B
Mon 01:42:47 PM 41.4920 -112.4070 83° East 501 577 35,000  Level FlightAware ADS-B
Mon 01:43:27 PM 41.5020 -112.2850 84° East 497 572 35,000  Level FlightAware ADS-B
Mon 01:44:12 PM 41.5130 -112.1480 84° East 494 568 35,000  Level FlightAware ADS-B
Mon 01:44:52 PM 41.5230 -112.0280 84° East 489 563 35,000  Level FlightAware ADS-B
Mon 01:45:32 PM 41.5320 -111.9050 84° East 487 560 35,000  Level FlightAware ADS-B
Mon 01:46:17 PM 41.5430 -111.7710 84° East 485 558 35,000  Level FlightAware ADS-B
Mon 01:46:57 PM 41.5520 -111.6550 84° East 482 555 35,000  Level FlightAware ADS-B
Mon 01:47:42 PM 41.5620 -111.5190 84° East 486 559 35,000  Level FlightAware ADS-B
Mon 01:48:22 PM 41.5710 -111.4000 84° East 485 558 35,000  Level FlightAware ADS-B
Mon 01:49:07 PM 41.5810 -111.2750 84° East 487 560 35,000  Level FlightAware ADS-B
Mon 01:49:47 PM 41.5900 -111.1480 85° East 489 563 35,000  Level FlightAware ADS-B
Mon 01:50:32 PM 41.5990 -111.0180 85° East 491 565 35,000  Level FlightAware ADS-B
Mon 01:51:07 PM 41.6070 -110.9260 83° East 491 565 35,000  Level FlightAware ADS-B
Mon 01:51:47 PM 41.6150 -110.8230 84° East 491 565 35,000  Level FlightAware ADS-B
Mon 01:52:37 PM 41.6250 -110.6950 84° East 491 565 35,000  Level FlightAware ADS-B
Mon 01:53:17 PM 41.6330 -110.5920 84° East 491 565 35,000  Level FlightAware ADS-B
Mon 01:53:57 PM 41.6410 -110.4890 84° East 491 565 35,000  Level FlightAware ADS-B
Mon 01:54:37 PM 41.6490 -110.3860 84° East 491 565 35,000  Level FlightAware ADS-B
Mon 01:55:17 PM 41.6570 -110.2840 84° East 491 565 35,000  Level FlightAware ADS-B
Mon 01:56:07 PM 41.6670 -110.1550 84° East 491 565 35,000  Level FlightAware ADS-B
Mon 01:56:47 PM 41.6750 -110.0520 84° East 491 565 35,000  Level FlightAware ADS-B
Mon 01:57:27 PM 41.6830 -109.9490 84° East 491 565 35,000  Level FlightAware ADS-B
Mon 01:58:07 PM 41.6910 -109.8470 84° East 491 565 35,000  Level FlightAware ADS-B
Mon 01:58:47 PM 41.6990 -109.7440 84° East 491 565 35,000  Level FlightAware ADS-B
Mon 01:59:37 PM 41.7090 -109.6150 84° East 491 565 35,000  Level FlightAware ADS-B
Mon 02:00:17 PM 41.7170 -109.5120 84° East 491 565 35,000 -2,791 Level FlightAware ADS-B
Mon 02:01:03 PM 41.7189 -109.1236 84° East 497 572 31,000 -2,243 Descending Salt Lake Center
Mon 02:02:04 PM 41.7289 -108.9161 86° East 496 571 31,000  Level Salt Lake Center
Mon 02:03:06 PM 41.7392 -108.7397 85° East 494 568 31,000  Level Salt Lake Center
Mon 02:04:08 PM 41.7481 -108.5647 86° East 492 566 31,000  Level Salt Lake Center
Mon 02:05:10 PM 41.7578 -108.3592 86° East 494 568 31,000  Level Salt Lake Center
Mon 02:06:12 PM 41.7664 -108.1853 86° East 490 564 31,000  Level Salt Lake Center
Mon 02:06:38 PM 41.7692 -108.0931 88° East 495 570 31,000  Level Denver Center
Mon 02:07:40 PM 41.7769 -107.9172 87° East 494 568 31,000  Level Denver Center
Mon 02:08:42 PM 41.7858 -107.7114 87° East 496 571 31,000  Level Denver Center
Mon 02:09:44 PM 41.7942 -107.5344 86° East 497 572 31,000  Level Denver Center
Mon 02:10:46 PM 41.8022 -107.3278 87° East 499 574 31,000  Level Denver Center
Mon 02:11:48 PM 41.8078 -107.1517 88° East 497 572 31,000  Level Denver Center
Mon 02:17:07 PM 41.8420 -106.1440 88° East 500 575 31,000  Level FlightAware ADS-B
Mon 02:17:47 PM 41.8450 -106.0230 88° East 499 574 31,000  Level FlightAware ADS-B
Mon 02:18:27 PM 41.8560 -105.9090 83° East 497 572 31,000  Level FlightAware ADS-B
Mon 02:19:12 PM 41.8730 -105.7700 81° East 493 567 31,000  Level FlightAware ADS-B
Mon 02:19:52 PM 41.8860 -105.6600 81° East 493 567 31,000  Level FlightAware ADS-B
Mon 02:20:37 PM 41.9010 -105.5250 81° East 491 565 31,000  Level FlightAware ADS-B
Mon 02:21:17 PM 41.9170 -105.3860 81° East 492 566 31,000  Level FlightAware ADS-B
Mon 02:21:57 PM 41.9300 -105.2660 82° East 491 565 31,000  Level FlightAware ADS-B
Mon 02:22:42 PM 41.9450 -105.1380 81° East 494 568 31,000  Level FlightAware ADS-B
Mon 02:23:14 PM 41.9565 -105.0300 82° East 492 566 31,000  Level FlightAware ADS-B
Mon 02:23:46 PM 41.9668 -104.9330 82° East 488 562 31,000  Level FlightAware ADS-B
Mon 02:24:16 PM 41.9766 -104.8430 82° East 486 559 31,000  Level FlightAware ADS-B
Mon 02:24:47 PM 41.9865 -104.7510 82° East 486 559 31,000  Level FlightAware ADS-B
Mon 02:25:17 PM 41.9961 -104.6610 82° East 486 559 31,000  Level FlightAware ADS-B
Mon 02:25:51 PM 42.0069 -104.5600 82° East 488 562 31,000  Level FlightAware ADS-B
Mon 02:26:21 PM 42.0164 -104.4700 82° East 488 562 31,000  Level FlightAware ADS-B
Mon 02:26:51 PM 42.0256 -104.3790 82° East 488 562 31,000  Level FlightAware ADS-B
Mon 02:27:24 PM 42.0357 -104.2820 82° East 487 560 31,000  Level FlightAware ADS-B
Mon 02:27:54 PM 42.0450 -104.1920 82° East 485 558 31,000  Level FlightAware ADS-B
Mon 02:28:24 PM 42.0541 -104.1020 82° East 482 555 31,000  Level FlightAware ADS-B
Mon 02:28:55 PM 42.0632 -104.0120 82° East 482 555 31,000  Level FlightAware ADS-B
Mon 02:29:25 PM 42.0721 -103.9220 82° East 482 555 31,000  Level FlightAware ADS-B
Mon 02:29:56 PM 42.0814 -103.8290 82° East 480 552 31,000  Level FlightAware ADS-B
Mon 02:30:26 PM 42.0902 -103.7400 82° East 480 552 31,000  Level FlightAware ADS-B
Mon 02:30:56 PM 42.0988 -103.6510 83° East 480 552 31,000  Level FlightAware ADS-B
Mon 02:31:27 PM 42.1074 -103.5620 83° East 478 550 31,000  Level FlightAware ADS-B
Mon 02:31:57 PM 42.1158 -103.4720 83° East 477 549 31,000  Level FlightAware ADS-B
Mon 02:32:28 PM 42.1243 -103.3820 83° East 477 549 31,000  Level FlightAware ADS-B
Mon 02:32:58 PM 42.1327 -103.2940 83° East 476 548 31,000  Level FlightAware ADS-B
Mon 02:33:31 PM 42.1419 -103.1960 83° East 476 548 31,000  Level FlightAware ADS-B
Mon 02:34:06 PM 42.1513 -103.0950 83° East 476 548 31,000  Level FlightAware ADS-B
Mon 02:34:41 PM 42.1610 -102.9900 83° East 477 549 31,000  Level FlightAware ADS-B
Mon 02:35:14 PM 42.1695 -102.8950 83° East 476 548 31,000  Level FlightAware ADS-B
Mon 02:35:44 PM 42.1774 -102.8070 83° East 474 545 31,000  Level FlightAware ADS-B
Mon 02:36:17 PM 42.1861 -102.7100 83° East 472 543 31,000  Level FlightAware ADS-B
Mon 02:36:47 PM 42.1908 -102.6483 83° East 471 542 31,000  Level Denver Center
Mon 02:37:49 PM 42.2086 -102.4511 83° East 474 545 31,000  Level Denver Center
Mon 02:38:51 PM 42.2261 -102.2819 82° East 475 547 31,000  Level Denver Center
Mon 02:39:52 PM 42.2467 -102.1472 78° East 472 543 31,000  Level Denver Center
Mon 02:40:54 PM 42.2764 -101.9225 80° East 469 540 31,000  Level Denver Center
Mon 02:41:56 PM 42.3036 -101.7308 79° East 471 542 31,000  Level Denver Center
Mon 02:42:58 PM 42.3236 -101.5650 81° East 468 539 31,000  Level Denver Center
Mon 02:43:59 PM 42.3456 -101.3969 80° East 471 542 31,000  Level Denver Center
Mon 02:45:01 PM 42.3706 -101.2031 80° East 469 540 31,000  Level Denver Center
Mon 02:46:03 PM 42.3925 -101.0347 80° East 471 542 31,000  Level Denver Center
Mon 02:47:05 PM 42.4161 -100.8386 81° East 472 543 31,000  Level Denver Center
Mon 02:48:06 PM 42.4378 -100.6703 80° East 474 545 31,000  Level Denver Center
Mon 02:49:08 PM 42.4622 -100.4694 81° East 482 555 31,000  Level Denver Center
Mon 02:50:10 PM 42.4817 -100.3000 81° East 478 550 31,000  Level Denver Center
Mon 02:51:11 PM 42.5025 -100.1300 81° East 478 550 31,000  Level Denver Center
Mon 02:51:53 PM 42.5183 -99.9897 81° East 478 550 31,000  Level Minneapolis Center
Mon 02:52:13 PM 42.5228 -99.9517 81° East 481 554 31,000  Level Denver Center
Mon 02:53:06 PM 42.5400 -99.8117 80° East 480 552 31,000  Level Minneapolis Center
Mon 02:54:08 PM 42.5636 -99.5986 81° East 476 548 31,000  Level Minneapolis Center
Mon 02:55:10 PM 42.5833 -99.4217 81° East 474 545 31,000  Level Minneapolis Center
Mon 02:56:12 PM 42.6036 -99.2458 81° East 472 543 31,000  Level Minneapolis Center
Mon 02:57:13 PM 42.6236 -99.0689 81° East 473 544 31,000  Level Minneapolis Center
Mon 02:58:15 PM 42.6411 -98.8911 82° East 476 548 31,000  Level Minneapolis Center
Mon 02:59:17 PM 42.6603 -98.7150 82° East 472 543 31,000  Level Minneapolis Center
Mon 03:00:18 PM 42.6828 -98.5014 82° East 474 545 31,000  Level Minneapolis Center
Mon 03:01:20 PM 42.7008 -98.3253 82° East 471 542 31,000  Level Minneapolis Center
Mon 03:02:21 PM 42.7194 -98.1389 82° East 473 544 31,000  Level Minneapolis Center
Mon 03:03:23 PM 42.7367 -97.9633 82° East 473 544 31,000  Level Minneapolis Center
Mon 03:04:24 PM 42.7531 -97.7881 83° East 471 542 31,000  Level Minneapolis Center
Mon 03:05:26 PM 42.7694 -97.6158 83° East 465 535 31,000  Level Minneapolis Center
Mon 03:06:27 PM 42.7856 -97.4442 83° East 462 532 31,000  Level Minneapolis Center
Mon 03:07:29 PM 42.8019 -97.2708 83° East 463 533 31,000  Level Minneapolis Center
Mon 03:08:30 PM 42.8178 -97.0981 83° East 463 533 31,000  Level Minneapolis Center
Mon 03:09:32 PM 42.8364 -96.8892 83° East 464 534 31,000  Level Minneapolis Center
Mon 03:10:33 PM 42.8517 -96.7178 83° East 462 532 31,000  Level Minneapolis Center
Mon 03:11:35 PM 42.8667 -96.5411 83° East 467 537 31,000  Level Minneapolis Center
Mon 03:12:37 PM 42.8811 -96.3650 84° East 470 541 31,000  Level Minneapolis Center
Mon 03:13:38 PM 42.8964 -96.1897 83° East 470 541 31,000  Level Minneapolis Center
Mon 03:14:40 PM 42.9103 -96.0175 84° East 464 534 31,000  Level Minneapolis Center
Mon 03:15:41 PM 42.9233 -95.8461 84° East 459 528 31,000  Level Minneapolis Center
Mon 03:16:43 PM 42.9408 -95.6347 83° East 468 539 31,000  Level Minneapolis Center
Mon 03:17:44 PM 42.9547 -95.4525 84° East 481 554 31,000  Level Minneapolis Center
Mon 03:22:57 PM 43.0230 -94.4870 84° East 498 573 31,000  Level FlightAware ADS-B
Mon 03:23:42 PM 43.0330 -94.3450 84° East 501 577 31,000  Level FlightAware ADS-B
Mon 03:24:22 PM 43.0410 -94.2220 85° East 503 579 31,000  Level FlightAware ADS-B
Mon 03:25:02 PM 43.0490 -94.0990 85° East 504 580 31,000  Level FlightAware ADS-B
Mon 03:25:47 PM 43.0430 -93.9470 93° East 500 575 31,000  Level FlightAware ADS-B
Mon 03:26:27 PM 43.0330 -93.8250 96° East 492 566 31,000  Level FlightAware ADS-B
Mon 03:27:12 PM 43.0220 -93.6870 96° East 497 572 31,000  Level FlightAware ADS-B
Mon 03:27:52 PM 43.0120 -93.5620 96° East 503 579 31,000  Level FlightAware ADS-B
Mon 03:28:32 PM 43.0020 -93.4390 96° East 506 582 31,000  Level FlightAware ADS-B
Mon 03:29:17 PM 42.9900 -93.2900 96° East 508 585 31,000  Level FlightAware ADS-B
Mon 03:29:57 PM 42.9790 -93.1630 97° East 510 587 31,000  Level FlightAware ADS-B
Mon 03:30:42 PM 42.9670 -93.0230 97° East 512 589 31,000  Level FlightAware ADS-B
Mon 03:31:17 PM 42.9570 -92.9070 97° East 512 589 31,000  Level FlightAware ADS-B
Mon 03:32:02 PM 42.9440 -92.7660 97° East 509 586 31,000  Level FlightAware ADS-B
Mon 03:32:47 PM 42.9310 -92.6210 97° East 511 588 31,000  Level FlightAware ADS-B
Mon 03:33:22 PM 42.9210 -92.5100 97° East 512 589 31,000  Level FlightAware ADS-B
Mon 03:34:12 PM 42.9070 -92.3540 97° East 514 592 31,000  Level FlightAware ADS-B
Mon 03:34:52 PM 42.8940 -92.2220 98° East 517 595 31,000  Level FlightAware ADS-B
Mon 03:35:47 PM 42.8780 -92.0460 97° East 517 595 31,000  Level FlightAware ADS-B
Mon 03:36:27 PM 42.8650 -91.9140 98° East 516 594 31,000  Level FlightAware ADS-B
Mon 03:37:02 PM 42.8550 -91.8090 97° East 515 593 31,000  Level FlightAware ADS-B
Mon 03:38:02 PM 42.8380 -91.6330 97° East 515 593 31,000  Level FlightAware ADS-B
Mon 03:38:47 PM 42.8220 -91.4740 98° East 516 594 31,000  Level FlightAware ADS-B
Mon 03:39:32 PM 42.8070 -91.3260 98° East 517 595 31,000  Level FlightAware ADS-B
Mon 03:40:12 PM 42.7930 -91.1910 98° East 517 595 31,000  Level FlightAware ADS-B
Mon 03:40:57 PM 42.7780 -91.0470 98° East 519 597 31,000  Level FlightAware ADS-B
Mon 03:41:32 PM 42.7660 -90.9310 98° East 520 598 31,000  Level FlightAware ADS-B
Mon 03:42:17 PM 42.7510 -90.7950 98° East 521 600 31,000  Level FlightAware ADS-B
Mon 03:43:02 PM 42.7350 -90.6470 98° East 522 601 31,000  Level FlightAware ADS-B
Mon 03:43:42 PM 42.7210 -90.5160 98° East 521 600 31,000  Level FlightAware ADS-B
Mon 03:44:27 PM 42.7050 -90.3740 99° East 519 597 31,000 -825 Level FlightAware ADS-B
Mon 03:45:02 PM 42.6930 -90.2590 98° East 510 587 29,900 -2,229 Descending FlightAware ADS-B
Mon 03:46:12 PM 42.6680 -90.0400 99° East 494 568 27,100 -2,345 Descending FlightAware ADS-B
Mon 03:46:52 PM 42.6540 -89.9190 99° East 484 557 25,600 -2,259 Descending FlightAware ADS-B
Mon 03:47:37 PM 42.6400 -89.7900 98° East 471 542 23,900 -2,400 Descending FlightAware ADS-B
Mon 03:48:17 PM 42.6250 -89.6680 99° East 460 529 22,200 -2,259 Descending FlightAware ADS-B
Mon 03:49:02 PM 42.6100 -89.5460 99° East 445 512 20,700 -2,047 Descending FlightAware ADS-B
Mon 03:49:42 PM 42.5980 -89.4380 99° East 430 495 19,300 -2,025 Descending FlightAware ADS-B
Mon 03:50:22 PM 42.5830 -89.3320 101° East 416 479 18,000 -1,964 Descending FlightAware ADS-B
Mon 03:50:37 PM 42.5720 -89.3030 117° Southeast 404 465 17,500 -1,920 Descending FlightAware ADS-B
Mon 03:50:47 PM 42.5560 -89.2810 135° Southeast 392 451 17,200 -1,560 Descending FlightAware ADS-B
Mon 03:51:27 PM 42.4990 -89.2220 143° Southeast 374 430 16,200 -1,500 Descending FlightAware ADS-B
Mon 03:52:07 PM 42.4470 -89.1670 142° Southeast 358 412 15,200 -1,835 Descending FlightAware ADS-B
Mon 03:52:52 PM 42.3880 -89.1060 143° Southeast 357 411 13,600 -1,835 Descending FlightAware ADS-B
Mon 03:53:32 PM 42.3370 -89.0510 141° Southeast 347 399 12,600 -1,350 Descending FlightAware ADS-B
Mon 03:54:12 PM 42.2870 -88.9920 139° Southeast 348 400 11,800 -982 Descending FlightAware ADS-B
Mon 03:54:27 PM 42.2790 -88.9670 113° Southeast 345 397 11,700 -600 Descending FlightAware ADS-B
Mon 03:54:42 PM 42.2770 -88.9380 95° East 340 391 11,500 -1,309 Descending FlightAware ADS-B
Mon 03:55:22 PM 42.2800 -88.8490 87° East 331 381 10,500 -1,457 Descending FlightAware ADS-B
Mon 03:55:52 PM 42.2830 -88.7870 86° East 327 376 9,800 -1,333 Descending FlightAware ADS-B
Mon 03:56:07 PM 42.2840 -88.7590 87° East 320 368 9,500 -1,333 Descending FlightAware ADS-B
Mon 03:56:37 PM 42.2870 -88.6960 86° East 311 358 8,800 -1,350 Descending FlightAware ADS-B
Mon 03:56:47 PM 42.2880 -88.6780 86° East 308 354 8,600 -1,350 Descending FlightAware ADS-B
Mon 03:57:17 PM 42.2910 -88.6200 86° East 301 346 7,900 -1,200 Descending FlightAware ADS-B
Mon 03:57:47 PM 42.2940 -88.5680 86° East 294 338 7,400 -873 Descending FlightAware ADS-B
Mon 03:58:12 PM 42.2970 -88.5240 85° East 289 333 7,100 -327 Descending FlightAware ADS-B
Mon 03:58:42 PM 42.3000 -88.4680 86° East 286 329 7,100  Level FlightAware ADS-B
Mon 03:59:02 PM 42.3020 -88.4310 86° East 290 334 7,100  Level FlightAware ADS-B
Mon 03:59:37 PM 42.2920 -88.3700 102° East 292 336 7,100  Level FlightAware ADS-B
Mon 04:00:07 PM 42.2820 -88.3180 105° East 290 334 7,100 -120 Level FlightAware ADS-B
Mon 04:00:27 PM 42.2750 -88.2810 104° East 289 333 7,000 -900 Descending FlightAware ADS-B
Mon 04:00:47 PM 42.2650 -88.2470 112° Southeast 281 323 6,500 -1,371 Descending FlightAware ADS-B
Mon 04:01:02 PM 42.2520 -88.2300 136° Southeast 275 316 6,200 -1,200 Descending FlightAware ADS-B
Mon 04:01:27 PM 42.2290 -88.2030 139° Southeast 269 310 5,700 -1,050 Descending FlightAware ADS-B
Mon 04:01:42 PM 42.2140 -88.1860 140° Southeast 266 306 5,500 -667 Descending FlightAware ADS-B
Mon 04:02:12 PM 42.1870 -88.1550 140° Southeast 249 287 5,200 -533 Descending FlightAware ADS-B
Mon 04:02:27 PM 42.1740 -88.1400 139° Southeast 239 275 5,100 -150 Descending FlightAware ADS-B
Mon 04:02:52 PM 42.1540 -88.1180 141° Southeast 224 258 5,100 -840 Level FlightAware ADS-B
Mon 04:03:17 PM 42.1320 -88.0930 140° Southeast 234 269 4,400 -1,091 Descending FlightAware ADS-B
Mon 04:03:47 PM 42.1110 -88.0680 139° Southeast 215 247 4,100 -800 Descending FlightAware ADS-B
Mon 04:04:02 PM 42.0990 -88.0550 141° Southeast 206 237 3,800 -1,067 Descending FlightAware ADS-B
Mon 04:04:32 PM 42.0780 -88.0320 141° Southeast 186 214 3,300 -1,200 Descending FlightAware ADS-B
Mon 04:04:57 PM 42.0620 -88.0130 139° Southeast 175 201 2,700 -1,350 Descending FlightAware ADS-B
Mon 04:05:12 PM 42.0530 -88.0040 143° Southeast 160 184 2,400 -1,067 Descending FlightAware ADS-B
Mon 04:05:42 PM 42.0360 -87.9850 140° Southeast 151 174 1,900 -933 Descending FlightAware ADS-B
Mon 04:05:57 PM 42.0290 -87.9770 140° Southeast 151 174 1,700 -750 Descending FlightAware ADS-B
Mon 04:06:22 PM 42.0170 -87.9630 139° Southeast 146 168 1,400 -720 Descending FlightAware ADS-B
Mon 04:06:47 PM 42.0040 -87.9480 139° Southeast 146 168 1,100 -720 Descending FlightAware ADS-B
Mon 04:07:12 PM 41.9900 -87.9330 141° Southeast 149 171 800 -720 Descending FlightAware ADS-B

Login

Don't have an account? Register now (free) for customized features, flight alerts, and more!